Time;durP1;ratioP1;P1;durP2;ratioP2;P2;SDS_P1;SDS_P2;PMS_P1;PMS_P2;Temp;Humidity;BMP_temperature;BMP_pressure;BME280_temperature;BME280_humidity;BME280_pressure;Samples;Min_cycle;Max_cycle;Signal;HPM_P1;HPM_P2
2024/03/17 18:24:56;;;;;;;;;;;22.20;41.20;;;;;;3023402;19;20388;-26
2024/03/17 18:26:11;;;;;;;;;;;22.50;40.20;;;;;;3054505;19;1502;-26
2024/03/17 18:27:12;;;;;;;;;;;22.50;40.20;;;;;;3029280;19;4671;-34
2024/03/17 18:28:13;;;;;;;;;;;22.50;40.10;;;;;;3050804;19;3200;-25
2024/03/17 18:29:14;;;;;;;;;;;22.50;40.10;;;;;;3029655;19;4628;-26
2024/03/17 18:30:15;;;;;;;;;;;22.50;40.10;;;;;;3052041;19;4743;-26
2024/03/17 18:31:16;;;;;;;;;;;22.50;40.00;;;;;;3052870;19;4668;-25
2024/03/17 18:32:17;;;;;;;;;;;22.50;40.10;;;;;;3031084;19;4606;-29
2024/03/17 18:33:17;;;;;;;;;;;22.50;40.00;;;;;;3052417;19;4679;-27
2024/03/17 18:34:18;;;;;;;;;;;22.50;40.00;;;;;;3050616;19;4856;-23
2024/03/17 18:35:19;;;;;;;;;;;22.50;40.00;;;;;;3030203;19;4633;-23
2024/03/17 18:36:19;;;;;;;;;;;22.50;40.60;;;;;;3051942;19;4713;-25
2024/03/17 18:37:20;;;;;;;;;;;22.50;40.00;;;;;;3030537;19;4685;-23
2024/03/17 18:38:21;;;;;;;;;;;22.50;40.00;;;;;;3051755;19;4701;-25
2024/03/17 18:39:22;;;;;;;;;;;22.50;40.00;;;;;;3051302;19;4972;-25
2024/03/17 18:40:24;;;;;;;;;;;22.50;40.00;;;;;;3030554;19;4579;-26
2024/03/17 18:41:24;;;;;;;;;;;22.50;40.10;;;;;;3052214;19;4690;-23
2024/03/17 18:42:25;;;;;;;;;;;22.50;40.10;;;;;;3052702;19;4693;-23
2024/03/17 18:43:26;;;;;;;;;;;22.50;40.10;;;;;;3030306;19;4641;-26
2024/03/17 18:44:28;;;;;;;;;;;22.60;40.10;;;;;;3051068;19;4699;-27
2024/03/17 18:45:31;;;;;;;;;;;22.50;40.10;;;;;;3030245;19;4742;-25
2024/03/17 18:46:32;;;;;;;;;;;22.50;40.10;;;;;;3052195;19;4675;-24
2024/03/17 18:47:33;;;;;;;;;;;22.50;40.00;;;;;;3052654;19;4697;-24
2024/03/17 18:48:33;;;;;;;;;;;22.50;40.00;;;;;;3030997;19;4668;-25
2024/03/17 18:49:34;;;;;;;;;;;22.50;40.00;;;;;;3048908;19;4692;-23
2024/03/17 18:50:36;;;;;;;;;;;22.50;40.10;;;;;;3029989;19;4716;-26
2024/03/17 18:51:36;;;;;;;;;;;22.50;40.20;;;;;;3050038;19;4828;-22
2024/03/17 18:52:37;;;;;;;;;;;22.40;40.00;;;;;;3050759;19;4737;-26
2024/03/17 18:53:41;;;;;;;;;;;23.40;40.70;;;;;;3029528;19;4759;-23
2024/03/17 18:54:41;;;;;;;;;;;22.40;40.20;;;;;;3051421;19;4701;-24
2024/03/17 18:55:42;;;;;;;;;;;22.40;40.20;;;;;;3051965;19;4707;-25
2024/03/17 18:56:43;;;;;;;;;;;22.30;40.30;;;;;;3029759;19;4587;-23
2024/03/17 18:57:44;;;;;;;;;;;22.30;40.30;;;;;;3052188;19;4928;-26
2024/03/17 18:58:45;;;;;;;;;;;22.30;40.30;;;;;;3030698;19;4730;-24
2024/03/17 18:59:46;;;;;;;;;;;22.30;40.40;;;;;;3051565;19;4774;-25
2024/03/17 19:00:52;;;;;;;;;;;22.20;40.30;;;;;;3051751;19;4745;-23
2024/03/17 19:01:54;;;;;;;;;;;22.20;40.40;;;;;;3029793;19;4705;-24
2024/03/17 19:02:55;;;;;;;;;;;22.20;40.40;;;;;;3051700;19;4667;-27
2024/03/17 19:03:58;;;;;;;;;;;22.20;40.50;;;;;;3030051;19;4781;-26
2024/03/17 19:04:59;;;;;;;;;;;22.20;40.60;;;;;;3048543;19;4730;-26
2024/03/17 19:06:09;;;;;;;;;;;22.20;40.60;;;;;;3050025;19;4656;-24
2024/03/17 19:07:10;;;;;;;;;;;22.10;40.60;;;;;;3028251;19;4602;-23
2024/03/17 19:08:11;;;;;;;;;;;22.10;40.70;;;;;;3050843;19;4765;-24
2024/03/17 19:09:11;;;;;;;;;;;22.10;40.70;;;;;;3029597;19;4787;-25
2024/03/17 19:10:12;;;;;;;;;;;22.20;40.90;;;;;;3049577;19;4749;-24
2024/03/17 19:11:15;;;;;;;;;;;22.10;40.80;;;;;;3049151;19;1712;-25
2024/03/17 19:12:16;;;;;;;;;;;22.10;40.80;;;;;;3028078;19;4659;-25
2024/03/17 19:13:16;;;;;;;;;;;22.10;40.90;;;;;;3050135;19;4746;-23
2024/03/17 19:14:17;;;;;;;;;;;22.10;41.00;;;;;;3051683;19;4672;-24
2024/03/17 19:15:18;;;;;;;;;;;22.10;41.00;;;;;;3030340;19;4642;-25
2024/03/17 19:16:19;;;;;;;;;;;22.00;41.00;;;;;;3052008;19;4704;-23
2024/03/17 19:17:20;;;;;;;;;;;22.00;41.00;;;;;;3030012;19;4695;-24
2024/03/17 19:18:21;;;;;;;;;;;22.00;41.10;;;;;;3051939;19;4766;-25
2024/03/17 19:19:21;;;;;;;;;;;22.00;41.10;;;;;;3050727;19;4808;-25
2024/03/17 19:20:22;;;;;;;;;;;22.00;41.10;;;;;;3029967;19;4622;-23
2024/03/17 19:21:23;;;;;;;;;;;22.00;41.80;;;;;;3051845;19;4701;-26
2024/03/17 19:22:25;;;;;;;;;;;22.00;41.80;;;;;;3049683;19;4704;-26
2024/03/17 19:23:26;;;;;;;;;;;22.00;41.00;;;;;;3029584;19;4654;-23
2024/03/17 19:24:26;;;;;;;;;;;22.10;40.90;;;;;;3048312;19;4761;-25
2024/03/17 19:25:27;;;;;;;;;;;22.20;40.90;;;;;;3029858;19;4697;-24
2024/03/17 19:26:28;;;;;;;;;;;22.20;40.80;;;;;;3051482;19;4696;-24
2024/03/17 19:27:29;;;;;;;;;;;22.20;40.80;;;;;;3051264;19;4697;-24
2024/03/17 19:28:29;;;;;;;;;;;22.20;40.70;;;;;;3030049;19;4628;-23
2024/03/17 19:29:30;;;;;;;;;;;22.20;40.70;;;;;;3050159;19;4768;-24
2024/03/17 19:30:31;;;;;;;;;;;22.20;40.70;;;;;;3029824;19;4719;-27
2024/03/17 19:31:32;;;;;;;;;;;22.20;40.70;;;;;;3051411;19;4744;-25
2024/03/17 19:32:36;;;;;;;;;;;22.20;40.70;;;;;;3051445;19;4719;-25
2024/03/17 19:33:38;;;;;;;;;;;22.20;40.70;;;;;;3030071;19;4650;-23
2024/03/17 19:34:39;;;;;;;;;;;22.20;40.70;;;;;;3050636;19;4660;-26
2024/03/17 19:35:40;;;;;;;;;;;22.20;40.70;;;;;;3051856;19;4758;-26
2024/03/17 19:36:43;;;;;;;;;;;22.20;41.40;;;;;;3030092;19;4617;-25
2024/03/17 19:37:43;;;;;;;;;;;22.20;40.80;;;;;;3051486;19;4662;-24
2024/03/17 19:38:46;;;;;;;;;;;22.20;40.80;;;;;;3030191;19;4915;-24
2024/03/17 19:39:47;;;;;;;;;;;22.20;40.80;;;;;;3051156;19;4738;-24
2024/03/17 19:40:58;;;;;;;;;;;22.20;40.80;;;;;;3051835;19;4790;-24
2024/03/17 19:42:01;;;;;;;;;;;22.20;40.80;;;;;;3029584;19;4818;-24
2024/03/17 19:43:01;;;;;;;;;;;22.20;40.90;;;;;;3051126;19;4663;-25
2024/03/17 19:44:02;;;;;;;;;;;22.20;40.90;;;;;;3030186;19;4713;-24
2024/03/17 19:45:04;;;;;;;;;;;22.20;40.80;;;;;;3051108;19;4626;-24
2024/03/17 19:46:11;;;;;;;;;;;22.20;40.80;;;;;;3051214;19;4606;-23
2024/03/17 19:47:12;;;;;;;;;;;22.10;40.80;;;;;;3029297;19;4802;-24
2024/03/17 19:48:13;;;;;;;;;;;22.20;40.90;;;;;;3049449;19;4702;-24
2024/03/17 19:49:13;;;;;;;;;;;22.20;40.80;;;;;;3028174;19;4680;-27
2024/03/17 19:50:14;;;;;;;;;;;22.10;40.80;;;;;;3051321;19;4907;-24
2024/03/17 19:51:19;;;;;;;;;;;22.10;40.80;;;;;;3051516;19;4880;-25
2024/03/17 19:52:20;;;;;;;;;;;22.10;40.90;;;;;;3030406;19;4571;-30
2024/03/17 19:53:21;;;;;;;;;;;22.20;40.90;;;;;;3052022;19;4588;-23
2024/03/17 19:54:21;;;;;;;;;;;22.10;40.90;;;;;;3049253;19;4886;-25
2024/03/17 19:55:25;;;;;;;;;;;22.10;40.90;;;;;;3030039;19;4581;-24
2024/03/17 19:56:26;;;;;;;;;;;22.10;40.90;;;;;;3051518;19;4747;-24
2024/03/17 19:57:27;;;;;;;;;;;22.10;40.90;;;;;;3029705;19;4572;-28
2024/03/17 19:58:28;;;;;;;;;;;22.10;41.00;;;;;;3050223;19;4770;-23
2024/03/17 19:59:29;;;;;;;;;;;22.10;41.00;;;;;;3050647;19;4864;-26
2024/03/17 20:00:29;;;;;;;;;;;22.10;41.00;;;;;;3029657;19;4594;-25
2024/03/17 20:01:30;;;;;;;;;;;22.00;40.90;;;;;;3051158;19;4674;-23
2024/03/17 20:02:31;;;;;;;;;;;22.00;41.00;;;;;;3028975;19;4797;-25
2024/03/17 20:03:32;;;;;;;;;;;22.00;41.00;;;;;;3050850;19;4692;-23
2024/03/17 20:04:33;;;;;;;;;;;22.00;41.10;;;;;;3049808;19;4881;-25
2024/03/17 20:05:34;;;;;;;;;;;22.00;41.10;;;;;;3029472;19;4688;-26
2024/03/17 20:06:35;;;;;;;;;;;22.00;41.10;;;;;;3051474;19;4640;-26
2024/03/17 20:07:35;;;;;;;;;;;21.90;41.10;;;;;;3051009;19;4843;-24
2024/03/17 20:08:36;;;;;;;;;;;21.90;41.20;;;;;;3029713;19;4595;-23
2024/03/17 20:09:37;;;;;;;;;;;21.90;41.20;;;;;;3050920;19;4743;-24
2024/03/17 20:10:38;;;;;;;;;;;21.90;41.10;;;;;;3029113;19;4643;-23
2024/03/17 20:11:39;;;;;;;;;;;21.90;41.20;;;;;;3051054;19;4726;-26
2024/03/17 20:12:39;;;;;;;;;;;21.90;41.20;;;;;;3051113;19;4845;-26
2024/03/17 20:13:40;;;;;;;;;;;21.90;41.20;;;;;;3029124;19;4680;-27
2024/03/17 20:14:41;;;;;;;;;;;21.90;41.00;;;;;;3048243;19;4880;-24
2024/03/17 20:15:41;;;;;;;;;;;22.00;40.90;;;;;;3049687;19;4987;-26
2024/03/17 20:16:42;;;;;;;;;;;22.00;40.80;;;;;;3026357;19;4697;-23
2024/03/17 20:17:43;;;;;;;;;;;22.10;40.70;;;;;;3049512;19;4765;-27
2024/03/17 20:18:43;;;;;;;;;;;22.10;40.60;;;;;;3028779;19;4658;-25
2024/03/17 20:19:44;;;;;;;;;;;22.20;40.60;;;;;;3049429;19;4769;-24
2024/03/17 20:20:45;;;;;;;;;;;22.20;40.50;;;;;;3050468;19;4736;-24
2024/03/17 20:21:46;;;;;;;;;;;22.20;40.50;;;;;;3029884;19;4701;-23
2024/03/17 20:22:47;;;;;;;;;;;22.20;40.40;;;;;;3053243;19;4840;-23
2024/03/17 20:23:50;;;;;;;;;;;22.20;40.40;;;;;;3053629;19;4773;-23
2024/03/17 20:24:51;;;;;;;;;;;22.30;40.50;;;;;;3053322;19;4773;-27
2024/03/17 20:25:52;;;;;;;;;;;22.30;40.30;;;;;;3054031;19;4890;-24
2024/03/17 20:26:52;;;;;;;;;;;22.30;40.20;;;;;;3032370;19;4670;-23
2024/03/17 20:27:56;;;;;;;;;;;22.30;40.20;;;;;;3054122;19;4662;-27
2024/03/17 20:29:02;;;;;;;;;;;22.20;40.10;;;;;;3054007;19;4708;-25
2024/03/17 20:30:03;;;;;;;;;;;22.30;40.20;;;;;;3031935;19;4692;-25
2024/03/17 20:31:03;;;;;;;;;;;22.30;40.80;;;;;;3053311;19;4639;-23
2024/03/17 20:32:04;;;;;;;;;;;22.30;40.10;;;;;;3033243;19;4643;-24
2024/03/17 20:33:05;;;;;;;;;;;22.30;40.20;;;;;;3054754;19;4672;-23
2024/03/17 20:34:05;;;;;;;;;;;22.30;40.10;;;;;;3054891;19;4689;-26
2024/03/17 20:35:07;;;;;;;;;;;22.30;40.10;;;;;;3031345;19;4620;-27
2024/03/17 20:36:08;;;;;;;;;;;22.30;40.10;;;;;;3054132;19;4445;-26
2024/03/17 20:37:10;;;;;;;;;;;22.30;40.00;;;;;;3044463;19;4889;-28
2024/03/17 20:38:10;;;;;;;;;;;22.30;40.00;;;;;;3053694;19;4710;-27
2024/03/17 20:39:11;;;;;;;;;;;22.30;40.10;;;;;;3052418;19;4811;-25
2024/03/17 20:40:11;;;;;;;;;;;22.30;40.00;;;;;;3032070;19;4670;-24
2024/03/17 20:41:12;;;;;;;;;;;22.30;40.10;;;;;;3053631;19;4725;-25
2024/03/17 20:42:13;;;;;;;;;;;22.30;40.20;;;;;;3053395;19;4933;-25
2024/03/17 20:43:15;;;;;;;;;;;22.30;40.10;;;;;;3031507;19;4629;-23
2024/03/17 20:44:15;;;;;;;;;;;22.20;40.00;;;;;;3053074;19;4718;-23
2024/03/17 20:45:17;;;;;;;;;;;22.20;40.00;;;;;;3030618;19;4740;-24
2024/03/17 20:46:18;;;;;;;;;;;22.20;40.00;;;;;;3053091;19;4721;-32
2024/03/17 20:47:18;;;;;;;;;;;22.20;40.00;;;;;;3053342;19;4924;-23
2024/03/17 20:48:19;;;;;;;;;;;22.20;40.00;;;;;;3032065;19;4750;-25
2024/03/17 20:49:20;;;;;;;;;;;22.20;40.00;;;;;;3052880;19;4725;-32
2024/03/17 20:50:22;;;;;;;;;;;22.20;40.10;;;;;;3053851;19;4681;-31
2024/03/17 20:51:22;;;;;;;;;;;22.20;40.10;;;;;;3031870;19;4613;-29
2024/03/17 20:52:23;;;;;;;;;;;22.20;40.00;;;;;;3053270;19;4774;-29
2024/03/17 20:53:25;;;;;;;;;;;22.20;40.10;;;;;;3031731;19;4717;-31
2024/03/17 20:54:26;;;;;;;;;;;22.20;40.00;;;;;;3053002;19;4696;-32
2024/03/17 20:55:28;;;;;;;;;;;22.20;40.10;;;;;;3053599;19;4695;-34
2024/03/17 20:56:28;;;;;;;;;;;22.10;40.10;;;;;;3031762;19;4630;-30
2024/03/17 20:57:29;;;;;;;;;;;22.10;40.20;;;;;;3053480;19;4720;-33
2024/03/17 20:58:30;;;;;;;;;;;22.10;40.10;;;;;;3036799;19;4781;-31
2024/03/17 20:59:30;;;;;;;;;;;22.10;40.20;;;;;;3052314;19;4803;-29
2024/03/17 21:00:31;;;;;;;;;;;22.10;40.20;;;;;;3052652;19;4697;-32
2024/03/17 21:01:32;;;;;;;;;;;22.10;40.20;;;;;;3030833;19;4873;-31
2024/03/17 21:02:32;;;;;;;;;;;22.10;40.30;;;;;;3050955;19;4753;-32
2024/03/17 21:03:33;;;;;;;;;;;22.00;40.30;;;;;;3052597;19;4745;-32
2024/03/17 21:04:33;;;;;;;;;;;22.00;40.30;;;;;;3029826;19;4889;-31
2024/03/17 21:05:36;;;;;;;;;;;22.00;40.30;;;;;;3051610;19;4716;-29
2024/03/17 21:06:36;;;;;;;;;;;22.00;40.40;;;;;;3030215;19;4695;-30
2024/03/17 21:07:37;;;;;;;;;;;22.00;40.40;;;;;;3051756;19;4787;-35
2024/03/17 21:08:38;;;;;;;;;;;22.00;40.50;;;;;;3052041;19;4828;-30
2024/03/17 21:09:39;;;;;;;;;;;21.90;41.10;;;;;;3030429;19;4676;-33
2024/03/17 21:10:39;;;;;;;;;;;21.90;40.50;;;;;;3052509;19;4762;-30
2024/03/17 21:11:41;;;;;;;;;;;21.90;40.60;;;;;;3051033;19;4713;-30
2024/03/17 21:12:42;;;;;;;;;;;21.90;40.60;;;;;;3029764;19;4646;-32
2024/03/17 21:13:44;;;;;;;;;;;21.90;40.60;;;;;;3050894;19;4786;-32
2024/03/17 21:14:45;;;;;;;;;;;21.90;40.60;;;;;;3028462;19;4676;-34
2024/03/17 21:15:47;;;;;;;;;;;21.90;40.60;;;;;;3049341;19;4730;-31
2024/03/17 21:16:48;;;;;;;;;;;21.80;40.60;;;;;;3052242;19;4704;-31
2024/03/17 21:17:51;;;;;;;;;;;21.80;40.60;;;;;;3028346;19;4710;-32
2024/03/17 21:18:52;;;;;;;;;;;21.80;40.60;;;;;;3051520;19;4684;-31
2024/03/17 21:19:53;;;;;;;;;;;21.60;40.50;;;;;;3029454;19;4782;-31
2024/03/17 21:21:02;;;;;;;;;;;21.80;40.60;;;;;;3053155;19;4702;-30
2024/03/17 21:22:02;;;;;;;;;;;21.80;40.70;;;;;;3052075;19;4885;-31
2024/03/17 21:23:03;;;;;;;;;;;21.70;40.80;;;;;;3032407;19;4655;-33
2024/03/17 21:24:04;;;;;;;;;;;21.80;40.80;;;;;;3052349;19;4671;-32
2024/03/17 21:25:07;;;;;;;;;;;21.80;40.70;;;;;;3051901;19;4649;-33
2024/03/17 21:26:11;;;;;;;;;;;21.90;40.60;;;;;;3030155;19;4764;-32
2024/03/17 21:27:12;;;;;;;;;;;21.90;40.50;;;;;;3052198;19;4708;-30
2024/03/17 21:28:15;;;;;;;;;;;22.00;40.50;;;;;;3030005;19;4635;-29
2024/03/17 21:29:16;;;;;;;;;;;22.00;40.40;;;;;;3052524;19;4688;-29
2024/03/17 21:30:18;;;;;;;;;;;22.10;40.40;;;;;;3052171;19;4692;-31
2024/03/17 21:31:18;;;;;;;;;;;22.10;40.40;;;;;;3031394;19;4591;-30
2024/03/17 21:32:19;;;;;;;;;;;22.10;40.20;;;;;;3051836;19;4750;-30
2024/03/17 21:33:19;;;;;;;;;;;22.10;40.20;;;;;;3031252;19;4722;-30
2024/03/17 21:34:20;;;;;;;;;;;22.10;40.20;;;;;;3051904;19;4907;-31
2024/03/17 21:35:21;;;;;;;;;;;22.10;40.20;;;;;;3051580;19;4748;-32
2024/03/17 21:36:22;;;;;;;;;;;22.10;40.10;;;;;;3030650;19;4586;-33
2024/03/17 21:37:23;;;;;;;;;;;22.10;40.20;;;;;;3052380;19;4643;-31
2024/03/17 21:38:24;;;;;;;;;;;22.00;40.00;;;;;;3051394;19;4685;-33
2024/03/17 21:39:25;;;;;;;;;;;22.00;40.10;;;;;;3030176;19;4700;-30
2024/03/17 21:40:26;;;;;;;;;;;22.00;40.10;;;;;;3052344;19;4705;-33
2024/03/17 21:41:27;;;;;;;;;;;22.00;40.10;;;;;;3030356;19;4687;-31
2024/03/17 21:42:27;;;;;;;;;;;22.00;40.10;;;;;;3052356;19;4840;-37
2024/03/17 21:43:28;;;;;;;;;;;22.00;40.10;;;;;;3052992;19;4681;-31
2024/03/17 21:44:28;;;;;;;;;;;22.00;40.10;;;;;;3031042;19;4614;-31
2024/03/17 21:45:29;;;;;;;;;;;22.00;40.10;;;;;;3053205;19;4730;-31
2024/03/17 21:46:30;;;;;;;;;;;22.00;40.20;;;;;;3036311;19;4685;-34
2024/03/17 21:47:30;;;;;;;;;;;22.00;40.10;;;;;;3053482;19;4791;-30
2024/03/17 21:48:31;;;;;;;;;;;22.00;40.20;;;;;;3053742;19;4744;-34
2024/03/17 21:49:31;;;;;;;;;;;22.00;40.20;;;;;;3031866;19;4738;-29
2024/03/17 21:50:32;;;;;;;;;;;22.00;40.20;;;;;;3053500;19;4806;-31
2024/03/17 21:51:33;;;;;;;;;;;21.90;40.10;;;;;;3052428;19;4694;-29
2024/03/17 21:52:33;;;;;;;;;;;21.90;40.20;;;;;;3031441;19;4722;-33
2024/03/17 21:53:34;;;;;;;;;;;21.90;40.20;;;;;;3051870;19;4697;-29
2024/03/17 21:54:35;;;;;;;;;;;21.90;40.20;;;;;;3030309;19;4730;-34
2024/03/17 21:55:35;;;;;;;;;;;21.90;40.20;;;;;;3052574;19;4744;-32
2024/03/17 21:56:37;;;;;;;;;;;21.90;40.30;;;;;;3052485;19;4795;-33
2024/03/17 21:57:39;;;;;;;;;;;21.90;40.30;;;;;;3029666;19;4726;-34
2024/03/17 21:58:40;;;;;;;;;;;21.80;40.20;;;;;;3052097;19;4685;-31
2024/03/17 21:59:41;;;;;;;;;;;21.90;40.40;;;;;;3051844;19;4684;-26
2024/03/17 22:00:41;;;;;;;;;;;21.80;40.30;;;;;;3030858;19;4623;-24
2024/03/17 22:01:42;;;;;;;;;;;21.80;40.30;;;;;;3052945;19;4754;-26
2024/03/17 22:02:43;;;;;;;;;;;21.80;40.30;;;;;;3029800;19;4723;-23
2024/03/17 22:03:43;;;;;;;;;;;21.80;40.40;;;;;;3051880;19;4703;-27
2024/03/17 22:04:47;;;;;;;;;;;21.80;40.40;;;;;;3051779;19;4850;-23
2024/03/17 22:05:54;;;;;;;;;;;21.80;40.50;;;;;;3031491;19;4838;-24
2024/03/17 22:06:55;;;;;;;;;;;21.80;40.50;;;;;;3052718;19;4855;-23
2024/03/17 22:07:56;;;;;;;;;;;21.80;40.50;;;;;;3030401;19;4688;-25
2024/03/17 22:08:56;;;;;;;;;;;21.70;40.60;;;;;;3051837;19;4708;-25
2024/03/17 22:09:57;;;;;;;;;;;21.80;40.70;;;;;;3051743;19;4645;-22
2024/03/17 22:10:58;;;;;;;;;;;21.80;40.60;;;;;;3031219;19;4792;-24
2024/03/17 22:11:59;;;;;;;;;;;21.80;40.60;;;;;;3052843;19;4623;-26
2024/03/17 22:12:59;;;;;;;;;;;21.90;40.50;;;;;;3051897;19;4628;-24
2024/03/17 22:14:01;;;;;;;;;;;21.90;40.50;;;;;;3030512;19;4676;-27
2024/03/17 22:15:03;;;;;;;;;;;22.00;40.70;;;;;;3051803;19;4666;-26
2024/03/17 22:16:06;;;;;;;;;;;22.00;40.40;;;;;;3029781;19;4632;-29
2024/03/17 22:17:07;;;;;;;;;;;22.00;40.40;;;;;;3052848;19;4435;-25
2024/03/17 22:18:07;;;;;;;;;;;22.10;40.40;;;;;;3047537;19;4791;-25
2024/03/17 22:19:08;;;;;;;;;;;22.10;40.30;;;;;;3023896;19;4702;-26
2024/03/17 22:20:09;;;;;;;;;;;22.90;40.70;;;;;;3051325;19;5105;-25
2024/03/17 22:21:12;;;;;;;;;;;22.10;40.10;;;;;;3030397;19;4701;-27
2024/03/17 22:22:14;;;;;;;;;;;22.10;40.10;;;;;;3051392;19;4714;-24
2024/03/17 22:23:14;;;;;;;;;;;22.10;40.10;;;;;;3051653;19;4720;-25
2024/03/17 22:24:17;;;;;;;;;;;22.10;40.00;;;;;;3029495;19;4839;-25
2024/03/17 22:25:17;;;;;;;;;;;22.10;40.00;;;;;;3051194;19;5357;-24
2024/03/17 22:26:18;;;;;;;;;;;22.10;40.00;;;;;;3051357;19;4744;-24
2024/03/17 22:27:19;;;;;;;;;;;22.10;40.00;;;;;;3029030;19;4615;-24
2024/03/17 22:28:21;;;;;;;;;;;22.10;40.00;;;;;;3051918;19;4728;-25
2024/03/17 22:29:21;;;;;;;;;;;22.10;40.00;;;;;;3030019;19;4739;-24
2024/03/17 22:30:22;;;;;;;;;;;22.10;39.90;;;;;;3050972;19;4855;-24
2024/03/17 22:31:24;;;;;;;;;;;22.10;39.90;;;;;;3052030;19;4691;-26
2024/03/17 22:32:24;;;;;;;;;;;22.10;39.90;;;;;;3030513;19;4734;-27
2024/03/17 22:33:26;;;;;;;;;;;22.10;40.00;;;;;;3051436;19;4701;-23
2024/03/17 22:34:27;;;;;;;;;;;22.10;39.90;;;;;;3051242;19;4764;-23
2024/03/17 22:35:27;;;;;;;;;;;22.10;39.90;;;;;;3028402;19;4817;-31
2024/03/17 22:36:28;;;;;;;;;;;22.10;39.80;;;;;;3051887;19;4695;-26
2024/03/17 22:37:29;;;;;;;;;;;22.10;39.80;;;;;;3029543;19;4686;-28
2024/03/17 22:38:30;;;;;;;;;;;22.20;39.80;;;;;;3051256;19;4717;-25
2024/03/17 22:39:31;;;;;;;;;;;22.20;39.80;;;;;;3051437;19;4813;-24
2024/03/17 22:40:32;;;;;;;;;;;22.10;39.90;;;;;;3029766;19;4684;-23
2024/03/17 22:41:33;;;;;;;;;;;22.10;39.90;;;;;;3052267;19;4705;-26
2024/03/17 22:42:33;;;;;;;;;;;22.10;39.80;;;;;;3031654;19;4707;-26
2024/03/17 22:43:40;;;;;;;;;;;22.10;39.90;;;;;;3051716;19;4717;-25
2024/03/17 22:44:41;;;;;;;;;;;22.10;39.80;;;;;;3051210;19;4867;-25
2024/03/17 22:45:41;;;;;;;;;;;22.10;39.80;;;;;;3028701;19;4667;-25
2024/03/17 22:46:43;;;;;;;;;;;22.20;39.80;;;;;;3052498;19;4691;-26
2024/03/17 22:47:45;;;;;;;;;;;22.10;39.90;;;;;;3053127;19;4664;-23
2024/03/17 22:48:46;;;;;;;;;;;22.10;39.80;;;;;;3030074;19;4720;-23
2024/03/17 22:49:47;;;;;;;;;;;22.10;39.80;;;;;;3052399;19;4681;-24
2024/03/17 22:50:53;;;;;;;;;;;22.10;39.90;;;;;;3030719;19;4655;-23
2024/03/17 22:51:54;;;;;;;;;;;22.10;39.90;;;;;;3052000;19;4859;-24
2024/03/17 22:52:55;;;;;;;;;;;22.10;39.80;;;;;;3052740;19;4661;-26
2024/03/17 22:53:55;;;;;;;;;;;22.10;39.90;;;;;;3028944;19;4686;-25
2024/03/17 22:54:56;;;;;;;;;;;22.10;39.90;;;;;;3051573;19;4610;-26
2024/03/17 22:55:56;;;;;;;;;;;22.10;39.90;;;;;;3029647;19;4664;-24
2024/03/17 22:56:59;;;;;;;;;;;22.10;40.00;;;;;;3051960;19;4660;-28
2024/03/17 22:58:00;;;;;;;;;;;22.10;40.00;;;;;;3051881;19;4623;-27
2024/03/17 22:59:01;;;;;;;;;;;22.10;39.90;;;;;;3030468;19;4650;-24
2024/03/17 23:00:01;;;;;;;;;;;22.10;39.90;;;;;;3051693;19;4834;-27
2024/03/17 23:01:04;;;;;;;;;;;22.10;40.00;;;;;;3050828;19;4655;-25
2024/03/17 23:02:05;;;;;;;;;;;22.10;39.90;;;;;;3030578;19;4585;-26
2024/03/17 23:03:05;;;;;;;;;;;22.10;39.90;;;;;;3052308;19;4598;-24
2024/03/17 23:04:07;;;;;;;;;;;22.10;39.90;;;;;;3030986;19;4725;-25
2024/03/17 23:05:09;;;;;;;;;;;22.00;40.00;;;;;;3051168;19;4626;-26
2024/03/17 23:06:09;;;;;;;;;;;22.10;39.90;;;;;;3052166;19;1843;-27
2024/03/17 23:07:10;;;;;;;;;;;22.10;39.90;;;;;;3029865;19;4749;-26
2024/03/17 23:08:10;;;;;;;;;;;22.10;39.90;;;;;;3052061;19;4769;-26
2024/03/17 23:09:11;;;;;;;;;;;22.10;39.90;;;;;;3028662;19;4690;-26
2024/03/17 23:10:12;;;;;;;;;;;22.10;39.90;;;;;;3051594;19;4717;-27
2024/03/17 23:11:15;;;;;;;;;;;22.10;40.00;;;;;;3052258;19;4914;-27
2024/03/17 23:12:15;;;;;;;;;;;22.10;40.60;;;;;;3031066;19;4535;-24
2024/03/17 23:13:22;;;;;;;;;;;22.10;39.90;;;;;;3051280;19;4711;-25
2024/03/17 23:14:22;;;;;;;;;;;22.10;39.90;;;;;;3051337;19;4878;-23
2024/03/17 23:15:23;;;;;;;;;;;22.00;40.00;;;;;;3030675;19;4566;-25
2024/03/17 23:16:24;;;;;;;;;;;22.10;40.00;;;;;;3052097;19;4681;-24
2024/03/17 23:17:24;;;;;;;;;;;22.00;39.90;;;;;;3044284;19;5800;-24
2024/03/17 23:18:25;;;;;;;;;;;22.00;40.00;;;;;;3052731;19;4775;-27
2024/03/17 23:19:26;;;;;;;;;;;22.00;39.90;;;;;;3050847;19;4882;-25
2024/03/17 23:20:27;;;;;;;;;;;22.10;40.00;;;;;;3030626;19;4627;-25
2024/03/17 23:21:27;;;;;;;;;;;22.00;40.00;;;;;;3051655;19;4713;-25
2024/03/17 23:22:28;;;;;;;;;;;22.00;40.00;;;;;;3053131;19;4651;-24
2024/03/17 23:23:28;;;;;;;;;;;22.00;40.60;;;;;;3031391;19;4685;-24
2024/03/17 23:24:29;;;;;;;;;;;22.00;40.00;;;;;;3051572;19;4772;-25
2024/03/17 23:25:30;;;;;;;;;;;22.00;40.10;;;;;;3031570;19;4506;-23
2024/03/17 23:26:30;;;;;;;;;;;22.00;40.00;;;;;;3052778;19;4687;-28
2024/03/17 23:27:31;;;;;;;;;;;22.00;40.00;;;;;;3051362;19;4720;-27
2024/03/17 23:28:32;;;;;;;;;;;22.00;40.10;;;;;;3031196;19;4695;-23
2024/03/17 23:29:32;;;;;;;;;;;22.00;40.10;;;;;;3051713;19;4839;-26
2024/03/17 23:30:33;;;;;;;;;;;22.00;40.10;;;;;;3030240;19;4761;-25
2024/03/17 23:31:34;;;;;;;;;;;22.00;40.10;;;;;;3050012;19;4918;-25
2024/03/17 23:32:36;;;;;;;;;;;22.00;40.10;;;;;;3050562;19;5010;-24
2024/03/17 23:33:36;;;;;;;;;;;22.00;40.20;;;;;;3028242;19;4644;-23
2024/03/17 23:34:37;;;;;;;;;;;22.00;40.10;;;;;;3050625;19;4602;-27
2024/03/17 23:35:50;;;;;;;;;;;22.00;40.20;;;;;;3049571;19;4715;-25
2024/03/17 23:36:50;;;;;;;;;;;22.00;40.20;;;;;;3029213;19;4685;-28
2024/03/17 23:37:53;;;;;;;;;;;22.00;40.20;;;;;;3049700;19;4701;-25
2024/03/17 23:38:55;;;;;;;;;;;22.00;40.30;;;;;;3028604;19;4726;-23
2024/03/17 23:39:56;;;;;;;;;;;22.00;40.90;;;;;;3048303;19;4725;-26
2024/03/17 23:40:57;;;;;;;;;;;22.00;40.30;;;;;;3049597;19;4663;-26
2024/03/17 23:41:58;;;;;;;;;;;22.00;40.20;;;;;;3027667;19;4716;-25
2024/03/17 23:43:01;;;;;;;;;;;22.00;40.20;;;;;;3048237;19;4737;-23
2024/03/17 23:44:01;;;;;;;;;;;22.00;40.20;;;;;;3028085;19;4958;-23
2024/03/17 23:45:04;;;;;;;;;;;21.90;40.30;;;;;;3049448;19;4713;-27
2024/03/17 23:46:09;;;;;;;;;;;21.90;40.20;;;;;;3048221;19;4655;-25
2024/03/17 23:47:09;;;;;;;;;;;22.00;40.30;;;;;;3026885;19;5034;-27
2024/03/17 23:48:10;;;;;;;;;;;21.90;40.20;;;;;;3049549;19;4683;-24
2024/03/17 23:49:10;;;;;;;;;;;21.90;40.20;;;;;;3028622;19;4722;-25
2024/03/17 23:50:12;;;;;;;;;;;21.90;40.20;;;;;;3049782;19;4730;-25
2024/03/17 23:51:12;;;;;;;;;;;21.90;40.30;;;;;;3050098;19;4743;-25
2024/03/17 23:52:13;;;;;;;;;;;21.90;40.30;;;;;;3029695;19;4120;-26
2024/03/17 23:53:13;;;;;;;;;;;21.50;40.00;;;;;;3050073;19;4721;-26
2024/03/17 23:54:14;;;;;;;;;;;21.90;40.30;;;;;;3050646;19;4736;-27
2024/03/17 23:55:15;;;;;;;;;;;21.90;40.30;;;;;;3028848;19;4730;-27
2024/03/17 23:56:16;;;;;;;;;;;21.90;40.30;;;;;;3049906;19;4760;-25
2024/03/17 23:57:17;;;;;;;;;;;21.90;40.30;;;;;;3031073;19;4759;-26
2024/03/17 23:58:18;;;;;;;;;;;21.90;40.30;;;;;;3053758;19;4702;-28
2024/03/17 23:59:19;;;;;;;;;;;21.90;40.30;;;;;;3052903;19;4777;-31
